Portada
METAR-TAF:

METAR-TAF

Aeroports :

Subang Jaya, Malàisia

latitud: 03-07N, longitud: 101-32E, altitud: 27 m

Observació

L'informe es va fer fa 45 minuts, a les 11:00 UTC
Vent 6 kt del Sud-Oest, variant entre Sud i Oest/Sud-Oest
Temperatura 32°C
Humitat 67%
Pressió 1008 hPa
Visibilitat 10 km o més
Escasses núvols a una alçada de 1700 ft, Cumulonimbus.

METAR: WMSA 251100Z 22006KT 190V250 9999 FEW017CB 32/25 Q1008

Hora: 19:45 (11:45 UTC)

Pronòstic

L'informe es va fer fa 45 minuts, a les 11:00 UTC
Pronòstic vàlid del 25 a les 12 UTC al 26 a les 12 UTC
Vent 3 kt amb direcció variable
Visibilitat 10 km o més
Escasses núvols a una alçada de 2600 ft
Temporalment
l' 26 a les 07 UTC al 26 a les 11 UTC
Vent 7 kt del Sud-Oest
Visibilitat: 4000 m
Escasses núvols a una alçada de 1700 ft, Cumulonimbus.
Núvols disperses a una alçada de 2000 ft
tempesta, pluja

TAF: WMSA 251100Z 2512/2612 VRB03KT 9999 FEW026 TEMPO 2607/2611 22007KT 4000 TSRA FEW017CB SCT020

Observacions i pronòstics meteorològics de més de 4000 aeroports (METAR i TAF).

Les estacions disponibles són els punts grocs i vermells al mapa.

Posi el ratolí al punt desitjat per veure el nom de l'estació.

Feu clic per veure les observacions i els pronòstics meteorològics.

Per canviar el mapa: feu clic els botons verds amb una creu de color negre per apropar; al botó verd amb un guió per allunyar la imatge; o en les fletxes verdes per a mapes adjacents.


METAR-TAF: